Time;durP1;ratioP1;P1;durP2;ratioP2;P2;SDS_P1;SDS_P2;PMS_P1;PMS_P2;Temp;Humidity;BMP_temperature;BMP_pressure;BME280_temperature;BME280_humidity;BME280_pressure;Samples;Min_cycle;Max_cycle;Signal;HPM_P1;HPM_P2
2023/08/02 00:00:15;;;;;;;7.15;4.50;;;;;;;20.45;88.46;99523.14;1783002;80;21071;-68
2023/08/02 00:02:44;;;;;;;7.22;4.30;;;;;;;20.44;88.59;99524.25;1783108;80;21022;-68
2023/08/02 00:05:13;;;;;;;8.45;4.65;;;;;;;20.40;88.65;99517.59;1782948;80;21019;-69
2023/08/02 00:07:42;;;;;;;5.78;4.40;;;;;;;20.36;88.94;99523.97;1782960;80;21066;-68
2023/08/02 00:10:10;;;;;;;6.25;4.47;;;;;;;20.33;89.30;99515.64;1782813;79;21018;-69
2023/08/02 00:12:40;;;;;;;8.83;4.50;;;;;;;20.33;89.40;99512.86;1783014;80;20998;-68
2023/08/02 00:15:09;;;;;;;6.60;4.60;;;;;;;20.33;89.49;99518.42;1783192;79;21006;-68
2023/08/02 00:17:38;;;;;;;5.80;4.53;;;;;;;20.36;89.52;99515.07;1783171;80;21022;-68
2023/08/02 00:20:09;;;;;;;5.28;4.47;;;;;;;20.37;89.40;99509.78;1782965;80;21043;-68
2023/08/02 00:22:38;;;;;;;6.90;5.00;;;;;;;20.39;89.39;99513.14;1783143;80;21030;-67
2023/08/02 00:25:08;;;;;;;8.30;4.75;;;;;;;20.42;89.37;99518.70;1783024;80;21062;-68
2023/08/02 00:27:37;;;;;;;6.80;4.20;;;;;;;20.43;89.13;99518.41;1782999;80;21058;-68
2023/08/02 00:30:08;;;;;;;4.25;3.85;;;;;;;20.42;89.05;99520.92;1803787;79;21588;-68
2023/08/02 00:32:45;;;;;;;5.42;4.33;;;;;;;20.37;89.24;99516.73;1815427;78;21054;-67
2023/08/02 00:35:15;;;;;;;7.53;4.70;;;;;;;20.32;89.37;99521.48;1815445;79;21078;-68
2023/08/02 00:37:46;;;;;;;6.80;5.00;;;;;;;20.24;89.66;99519.56;1815450;79;21035;-66
2023/08/02 00:40:14;;;;;;;7.03;4.50;;;;;;;20.21;90.07;99519.30;1815211;79;21479;-68
2023/08/02 00:42:43;;;;;;;6.22;4.70;;;;;;;20.18;90.36;99514.30;1815240;79;21403;-67
2023/08/02 00:45:14;;;;;;;5.62;4.60;;;;;;;20.17;90.45;99515.41;1815401;79;21512;-67
2023/08/02 00:47:42;;;;;;;6.25;4.92;;;;;;;20.14;90.56;99518.73;1815232;79;21015;-67
2023/08/02 00:50:11;;;;;;;7.65;4.85;;;;;;;20.12;90.81;99518.17;1815226;79;20995;-68
2023/08/02 00:52:40;;;;;;;7.78;5.05;;;;;;;20.11;90.81;99527.08;1815419;79;20979;-68
2023/08/02 00:55:09;;;;;;;5.97;4.72;;;;;;;20.11;90.88;99523.46;1815370;79;21035;-68
2023/08/02 00:57:38;;;;;;;7.22;5.10;;;;;;;20.10;90.92;99519.02;1815223;79;21036;-68
2023/08/02 01:00:09;;;;;;;8.75;5.03;;;;;;;20.07;91.06;99516.23;1815314;79;21501;-68
2023/08/02 01:02:38;;;;;;;7.33;5.42;;;;;;;20.10;91.18;99519.02;1815389;79;20999;-66
2023/08/02 01:05:07;;;;;;;5.45;4.70;;;;;;;20.09;91.17;99516.79;1815222;79;21489;-68
2023/08/02 01:08:02;;;;;;;6.08;4.95;;;;;;;20.07;91.19;99521.80;1815286;79;21426;-67
2023/08/02 01:10:45;;;;;;;6.92;5.15;;;;;;;20.02;91.29;99519.59;1815411;79;21015;-67
2023/08/02 01:13:15;;;;;;;7.35;5.25;;;;;;;19.97;91.58;99523.21;1815250;79;21047;-67
2023/08/02 01:15:43;;;;;;;7.37;5.08;;;;;;;19.95;91.77;99521.27;1815242;79;21517;-68
2023/08/02 01:18:12;;;;;;;9.38;5.15;;;;;;;19.93;91.79;99522.11;1815198;79;21066;-68
2023/08/02 01:20:41;;;;;;;8.25;5.45;;;;;;;19.91;91.94;99518.77;1815423;78;20976;-68
2023/08/02 01:23:11;;;;;;;8.40;5.12;;;;;;;19.89;92.24;99520.45;1815174;79;21042;-68
2023/08/02 01:25:40;;;;;;;7.22;5.25;;;;;;;19.90;92.25;99520.72;1815161;79;21085;-68
2023/08/02 01:28:14;;;;;;;7.22;5.58;;;;;;;19.92;92.20;99512.94;1815389;79;21054;-67
2023/08/02 01:30:43;;;;;;;9.03;5.58;;;;;;;19.92;92.02;99520.44;1790596;78;21085;-67
2023/08/02 01:33:12;;;;;;;6.55;5.25;;;;;;;19.88;91.95;99519.34;1783045;80;21011;-67
2023/08/02 01:35:41;;;;;;;8.73;5.20;;;;;;;19.82;92.15;99521.29;1783264;79;21027;-66
2023/08/02 01:38:09;;;;;;;5.47;4.92;;;;;;;19.80;92.32;99515.73;1783125;80;21035;-67
2023/08/02 01:40:38;;;;;;;5.85;5.20;;;;;;;19.78;92.39;99516.02;1782981;80;21052;-66
2023/08/02 01:43:07;;;;;;;6.62;4.92;;;;;;;19.79;92.60;99514.90;1783200;80;21512;-68
2023/08/02 01:45:36;;;;;;;8.85;5.60;;;;;;;19.80;92.62;99515.73;1783081;80;21050;-67
2023/08/02 01:48:05;;;;;;;7.42;5.55;;;;;;;19.80;92.55;99513.78;1783106;80;21446;-68
2023/08/02 01:50:34;;;;;;;6.12;5.10;;;;;;;19.77;92.59;99515.73;1783038;80;21447;-67
2023/08/02 01:53:03;;;;;;;7.25;5.37;;;;;;;19.75;92.67;99508.80;1782975;80;21067;-67
2023/08/02 01:55:31;;;;;;;6.72;4.85;;;;;;;19.74;92.75;99519.08;1783191;80;20995;-67
2023/08/02 01:58:01;;;;;;;8.98;5.58;;;;;;;19.73;92.79;99510.46;1783305;80;20979;-70
2023/08/02 02:00:31;;;;;;;5.50;4.83;;;;;;;19.76;92.79;99516.02;1783014;80;21451;-67
2023/08/02 02:03:00;;;;;;;7.85;5.45;;;;;;;19.77;92.90;99517.69;1783085;80;21041;-67
2023/08/02 02:05:29;;;;;;;7.42;5.80;;;;;;;19.74;92.85;99516.30;1783042;80;21062;-67
2023/08/02 02:07:58;;;;;;;6.90;5.17;;;;;;;19.72;93.10;99512.13;1783204;80;20979;-67
2023/08/02 02:10:27;;;;;;;6.90;5.97;;;;;;;19.74;93.20;99509.91;1783294;80;21458;-67
2023/08/02 02:12:55;;;;;;;7.15;5.80;;;;;;;19.76;93.19;99506.29;1783031;80;21034;-67
2023/08/02 02:15:24;;;;;;;6.47;5.58;;;;;;;19.75;93.08;99493.50;1783064;80;21066;-68
2023/08/02 02:17:54;;;;;;;7.00;5.28;;;;;;;19.76;93.13;99500.17;1782951;80;21037;-67
2023/08/02 02:20:24;;;;;;;6.30;5.10;;;;;;;19.77;93.00;99503.23;1783081;80;21030;-68
2023/08/02 02:22:57;;;;;;;7.58;5.47;;;;;;;19.78;92.84;99495.72;1783134;80;21002;-68
2023/08/02 02:25:25;;;;;;;7.05;5.78;;;;;;;19.75;92.78;99498.51;1783206;80;21031;-67
2023/08/02 02:27:54;;;;;;;8.25;5.50;;;;;;;19.74;92.85;99505.73;1783125;80;21090;-67
2023/08/02 02:30:23;;;;;;;7.25;5.03;;;;;;;19.71;93.00;99507.13;1782939;79;21451;-66
2023/08/02 02:32:52;;;;;;;8.88;5.67;;;;;;;19.71;93.10;99507.69;1783221;80;21057;-67
2023/08/02 02:35:21;;;;;;;9.20;4.97;;;;;;;19.70;93.18;99504.07;1783281;79;21058;-67
2023/08/02 02:37:50;;;;;;;7.78;5.35;;;;;;;19.68;93.13;99506.30;1783177;80;20971;-66
2023/08/02 02:40:20;;;;;;;12.18;5.50;;;;;;;19.65;93.20;99507.41;1783221;80;20995;-67
2023/08/02 02:42:49;;;;;;;9.63;5.70;;;;;;;19.63;93.27;99514.64;1783318;80;21011;-67
2023/08/02 02:45:18;;;;;;;7.12;5.85;;;;;;;19.62;93.46;99508.25;1783038;80;21034;-68
2023/08/02 02:47:46;;;;;;;7.75;5.90;;;;;;;19.62;93.45;99511.58;1757111;79;21070;-67
2023/08/02 02:50:15;;;;;;;9.40;5.85;;;;;;;19.61;93.56;99512.70;1782968;80;21015;-67
2023/08/02 02:52:44;;;;;;;6.65;5.60;;;;;;;19.60;93.69;99507.69;1783266;80;21015;-68
2023/08/02 02:55:14;;;;;;;8.78;5.97;;;;;;;19.62;93.73;99517.14;1783223;79;21891;-67
2023/08/02 02:57:43;;;;;;;7.62;5.92;;;;;;;19.61;93.62;99514.09;1783255;80;21019;-67
2023/08/02 03:00:13;;;;;;;12.10;6.90;;;;;;;19.55;93.68;99523.53;1782883;80;21031;-68
2023/08/02 03:02:41;;;;;;;6.80;5.58;;;;;;;19.48;94.00;99518.19;1783248;80;21050;-67
2023/08/02 03:05:10;;;;;;;9.03;6.60;;;;;;;19.47;94.31;99529.58;1783357;80;21007;-67
2023/08/02 03:07:39;;;;;;;9.08;5.78;;;;;;;19.48;94.57;99524.30;1783217;80;21419;-67
2023/08/02 03:10:09;;;;;;;8.75;6.15;;;;;;;19.51;94.70;99523.23;1783257;80;20999;-67
2023/08/02 03:12:38;;;;;;;8.28;6.30;;;;;;;19.52;94.58;99526.84;1782997;79;21082;-67
2023/08/02 03:15:08;;;;;;;9.75;5.80;;;;;;;19.54;94.64;99524.09;1783253;80;21450;-68
2023/08/02 03:17:37;;;;;;;7.55;6.35;;;;;;;19.56;94.53;99517.70;1783179;79;21023;-67
2023/08/02 03:20:07;;;;;;;8.75;6.20;;;;;;;19.58;94.45;99521.59;1783141;80;20976;-69
2023/08/02 03:22:36;;;;;;;10.25;6.50;;;;;;;19.59;94.44;99514.36;1783167;80;21062;-67
2023/08/02 03:25:06;;;;;;;8.53;6.17;;;;;;;19.61;94.42;99516.31;1783032;80;21054;-68
2023/08/02 03:27:35;;;;;;;8.13;6.40;;;;;;;19.62;94.40;99515.20;1782929;80;21015;-67
2023/08/02 03:30:05;;;;;;;7.65;6.20;;;;;;;19.62;94.38;99519.92;1782936;79;21030;-68
2023/08/02 03:32:34;;;;;;;11.30;6.78;;;;;;;19.63;94.41;99518.25;1782971;80;21102;-68
2023/08/02 03:35:05;;;;;;;8.53;6.75;;;;;;;19.65;94.52;99520.75;1783205;80;21062;-68
2023/08/02 03:37:34;;;;;;;10.53;6.55;;;;;;;19.67;94.62;99514.36;1783168;80;21053;-67
2023/08/02 03:40:03;;;;;;;8.68;6.17;;;;;;;19.69;94.69;99509.91;1783129;80;20999;-69
2023/08/02 03:42:32;;;;;;;10.88;6.80;;;;;;;19.71;94.92;99509.08;1782991;79;21046;-68
2023/08/02 03:45:03;;;;;;;9.43;6.20;;;;;;;19.74;95.03;99511.30;1783106;80;21015;-68
2023/08/02 03:47:34;;;;;;;12.35;6.90;;;;;;;19.79;95.26;99515.45;1782983;80;21442;-68
2023/08/02 03:50:04;;;;;;;11.80;7.45;;;;;;;19.86;95.34;99511.83;1782900;80;21256;-68
2023/08/02 03:52:33;;;;;;;8.33;7.10;;;;;;;19.90;95.37;99503.20;1782880;80;21512;-68
2023/08/02 03:55:04;;;;;;;10.55;7.05;;;;;;;19.94;95.35;99502.92;1782944;79;21052;-68
2023/08/02 03:57:33;;;;;;;7.97;6.60;;;;;;;19.98;95.42;99500.41;1783235;80;21474;-67
2023/08/02 04:00:02;;;;;;;10.58;7.20;;;;;;;20.03;95.48;99507.35;1782929;80;21052;-67
2023/08/02 04:02:34;;;;;;;11.03;6.92;;;;;;;20.08;95.35;99504.56;1781808;80;21041;-68
2023/08/02 04:05:03;;;;;;;11.08;7.10;;;;;;;20.10;95.43;99506.50;1782642;80;21825;-67
2023/08/02 04:07:33;;;;;;;10.60;7.22;;;;;;;20.16;95.54;99503.45;1783337;80;21023;-67
2023/08/02 04:10:02;;;;;;;13.48;7.78;;;;;;;20.23;95.54;99498.42;1782925;80;21462;-68
2023/08/02 04:12:31;;;;;;;10.30;6.95;;;;;;;20.29;95.53;99497.84;1783121;80;21446;-67
2023/08/02 04:15:00;;;;;;;9.30;6.95;;;;;;;20.35;95.45;99496.71;1782951;80;21068;-67
2023/08/02 04:17:29;;;;;;;10.40;7.37;;;;;;;20.40;95.22;99491.72;1783310;80;21043;-68
2023/08/02 04:20:01;;;;;;;10.65;7.42;;;;;;;20.48;94.88;99493.91;1782959;79;21034;-67
2023/08/02 04:22:32;;;;;;;17.62;8.00;;;;;;;20.53;94.44;99491.94;1783112;80;21041;-68
2023/08/02 04:25:03;;;;;;;10.00;7.50;;;;;;;20.60;94.00;99495.80;1783261;80;21027;-67
2023/08/02 04:27:33;;;;;;;10.95;7.92;;;;;;;20.67;93.57;99501.05;1783158;80;21019;-66
2023/08/02 04:30:02;;;;;;;9.23;7.22;;;;;;;20.72;92.98;99486.55;1783077;79;20999;-69
2023/08/02 04:32:31;;;;;;;9.53;7.22;;;;;;;20.78;92.47;99491.53;1783026;80;21251;-69
2023/08/02 04:35:01;;;;;;;8.25;7.37;;;;;;;20.85;91.82;99490.69;1783157;80;21074;-69
2023/08/02 04:37:31;;;;;;;10.98;7.67;;;;;;;20.90;91.25;99486.47;1783255;80;21014;-68
2023/08/02 04:39:59;;;;;;;8.93;6.75;;;;;;;20.96;90.88;99485.32;1783030;80;21010;-68
2023/08/02 04:42:30;;;;;;;10.15;7.40;;;;;;;21.03;90.57;99480.27;1782946;80;21516;-68
2023/08/02 04:45:00;;;;;;;8.55;7.15;;;;;;;21.07;90.42;99474.38;1783047;80;21123;-69
2023/08/02 04:47:28;;;;;;;14.45;7.53;;;;;;;21.10;90.33;99479.38;1783120;80;21031;-69
2023/08/02 04:49:58;;;;;;;10.53;7.03;;;;;;;21.17;90.17;99477.09;1782928;80;21038;-68
2023/08/02 04:52:27;;;;;;;16.87;7.65;;;;;;;21.24;90.00;99474.58;1782959;80;21006;-68
2023/08/02 04:54:55;;;;;;;10.98;7.42;;;;;;;21.28;89.76;99475.09;1783132;80;21061;-67
2023/08/02 04:57:24;;;;;;;14.87;7.60;;;;;;;21.33;89.51;99473.66;1782942;80;21010;-68
2023/08/02 04:59:55;;;;;;;12.05;7.30;;;;;;;21.38;89.27;99467.21;1783027;80;21023;-68
2023/08/02 05:02:29;;;;;;;11.63;7.20;;;;;;;21.43;88.90;99472.73;1783090;80;21054;-68
2023/08/02 05:04:55;;;;;;;9.65;6.90;;;;;;;21.48;88.37;99471.33;1783034;80;21015;-68
2023/08/02 05:07:24;;;;;;;13.35;6.90;;;;;;;21.51;87.77;99475.77;1782963;80;21702;-68
2023/08/02 05:09:52;;;;;;;9.98;7.58;;;;;;;21.58;87.41;99471.23;1783237;80;21443;-68
2023/08/02 05:12:22;;;;;;;13.88;8.45;;;;;;;21.66;87.23;99472.00;1782977;80;21035;-68
2023/08/02 05:14:51;;;;;;;11.95;6.78;;;;;;;21.75;86.78;99471.62;1783270;80;21125;-69
2023/08/02 05:17:20;;;;;;;12.10;7.15;;;;;;;21.84;86.07;99471.26;1783225;80;21002;-68
2023/08/02 05:19:49;;;;;;;11.35;6.72;;;;;;;21.94;85.74;99466.70;1782793;80;21039;-68
2023/08/02 05:22:17;;;;;;;11.15;7.00;;;;;;;22.07;85.33;99464.06;1783057;80;21423;-68
2023/08/02 05:24:46;;;;;;;7.12;6.00;;;;;;;22.27;84.63;99461.63;1782903;79;21007;-69
2023/08/02 05:27:15;;;;;;;10.38;6.60;;;;;;;22.53;83.93;99464.09;1783251;80;21011;-69
2023/08/02 05:29:44;;;;;;;9.43;6.20;;;;;;;22.82;82.79;99466.27;1783100;80;20983;-68
2023/08/02 05:32:13;;;;;;;9.15;6.33;;;;;;;23.11;81.14;99465.28;1782758;79;21031;-68
2023/08/02 05:34:42;;;;;;;14.28;6.53;;;;;;;23.37;79.71;99459.53;1782892;80;21050;-68
2023/08/02 05:37:12;;;;;;;10.30;6.87;;;;;;;23.66;78.25;99468.59;1783238;80;21067;-68
2023/08/02 05:39:41;;;;;;;8.85;6.30;;;;;;;23.88;76.54;99465.69;1782972;79;21019;-67
2023/08/02 05:42:10;;;;;;;10.15;6.58;;;;;;;24.00;75.30;99470.21;1782886;80;21027;-69
2023/08/02 05:44:39;;;;;;;10.40;6.80;;;;;;;24.06;74.26;99462.01;1782994;80;21031;-68
2023/08/02 05:47:14;;;;;;;8.60;6.58;;;;;;;24.08;73.65;99465.33;1783204;80;21054;-67
2023/08/02 05:49:43;;;;;;;8.10;6.72;;;;;;;24.08;73.21;99455.53;1783208;80;21078;-69
2023/08/02 05:52:12;;;;;;;9.03;6.95;;;;;;;24.03;73.01;99452.80;1782905;80;21060;-67
2023/08/02 05:54:41;;;;;;;8.13;6.03;;;;;;;24.01;72.94;99452.28;1782936;80;20999;-68
2023/08/02 05:57:10;;;;;;;10.95;6.75;;;;;;;24.00;72.40;99450.05;1783085;79;21026;-69
2023/08/02 05:59:39;;;;;;;11.95;6.72;;;;;;;24.03;72.18;99447.20;1783090;80;21058;-67
2023/08/02 06:02:08;;;;;;;12.03;5.97;;;;;;;24.06;71.86;99452.75;1783034;79;21035;-68
2023/08/02 06:04:39;;;;;;;10.72;6.22;;;;;;;24.11;71.80;99447.91;1783072;80;21042;-69
2023/08/02 06:07:07;;;;;;;9.28;6.95;;;;;;;24.13;71.36;99446.20;1783106;80;21032;-67
2023/08/02 06:09:36;;;;;;;8.30;6.03;;;;;;;24.19;71.10;99447.19;1783163;79;21061;-68
2023/08/02 06:12:06;;;;;;;9.50;6.37;;;;;;;24.21;70.33;99443.51;1782965;80;21050;-68
2023/08/02 06:14:35;;;;;;;8.43;6.45;;;;;;;24.22;70.07;99435.94;1783370;80;21027;-67
2023/08/02 06:17:04;;;;;;;16.93;7.80;;;;;;;24.24;70.08;99435.05;1783066;80;21004;-67
2023/08/02 06:19:33;;;;;;;10.55;6.67;;;;;;;24.30;70.20;99438.04;1782953;80;21015;-67
2023/08/02 06:22:02;;;;;;;7.78;5.60;;;;;;;24.38;69.85;99444.31;1782890;80;21058;-67
2023/08/02 06:24:31;;;;;;;7.05;6.17;;;;;;;24.57;69.37;99446.98;1783077;80;21046;-67
2023/08/02 06:27:00;;;;;;;12.25;6.67;;;;;;;24.81;68.13;99448.98;1783143;80;21006;-67
2023/08/02 06:29:29;;;;;;;10.32;6.30;;;;;;;25.03;67.38;99450.20;1783157;80;21022;-67
2023/08/02 06:32:00;;;;;;;7.83;6.55;;;;;;;25.25;66.56;99446.02;1782868;79;21528;-67
2023/08/02 06:34:29;;;;;;;6.83;6.12;;;;;;;25.51;65.78;99439.21;1782968;80;20991;-67
2023/08/02 06:36:58;;;;;;;10.25;6.35;;;;;;;25.79;64.84;99441.31;1783165;80;21037;-68
2023/08/02 06:39:28;;;;;;;12.05;6.17;;;;;;;26.02;63.28;99441.53;1783190;80;21014;-68
2023/08/02 06:41:57;;;;;;;9.28;6.10;;;;;;;26.26;62.25;99438.91;1783153;80;21076;-68
2023/08/02 06:44:30;;;;;;;13.00;6.08;;;;;;;26.51;62.14;99436.20;1783238;80;21046;-67
2023/08/02 06:46:59;;;;;;;11.28;6.20;;;;;;;27.23;59.33;99440.45;1757369;80;21081;-66
2023/08/02 06:49:28;;;;;;;10.75;6.05;;;;;;;27.49;57.88;99437.64;1782936;80;21483;-68
2023/08/02 06:51:57;;;;;;;14.60;6.95;;;;;;;27.49;57.88;99437.64;1783164;80;21058;-67
2023/08/02 06:54:27;;;;;;;14.00;6.90;;;;;;;27.90;56.99;99435.66;1783022;80;21022;-67
2023/08/02 06:56:56;;;;;;;18.67;6.60;;;;;;;27.90;56.99;99435.66;1783030;79;21455;-67
2023/08/02 06:59:24;;;;;;;10.50;6.10;;;;;;;28.17;55.85;99437.83;1783023;79;21463;-67
2023/08/02 07:01:56;;;;;;;7.25;5.65;;;;;;;28.33;54.90;99437.53;1782939;79;21053;-67
2023/08/02 07:04:26;;;;;;;10.75;6.00;;;;;;;28.50;53.76;99435.20;1783128;80;21054;-67
2023/08/02 07:06:54;;;;;;;11.45;5.50;;;;;;;28.65;52.63;99434.06;1783048;80;21056;-68
2023/08/02 07:09:27;;;;;;;6.10;5.35;;;;;;;28.79;51.97;99431.56;1783168;80;21054;-65
2023/08/02 07:11:56;;;;;;;14.70;5.83;;;;;;;28.95;51.73;99434.05;1783215;80;21019;-68
2023/08/02 07:14:25;;;;;;;8.85;5.28;;;;;;;29.14;51.54;99430.16;1782888;79;21473;-67
2023/08/02 07:16:54;;;;;;;9.40;5.33;;;;;;;29.40;50.23;99440.41;1783330;79;21086;-67
2023/08/02 07:19:23;;;;;;;6.50;5.22;;;;;;;29.56;49.68;99435.80;1783004;80;21414;-66
2023/08/02 07:21:52;;;;;;;6.40;5.12;;;;;;;29.71;49.31;99439.38;1783080;80;21054;-68
2023/08/02 07:24:21;;;;;;;6.62;5.12;;;;;;;29.89;48.67;99432.36;1783097;80;21039;-68
2023/08/02 07:26:50;;;;;;;6.05;4.70;;;;;;;30.01;47.64;99437.23;1782902;80;21490;-67
2023/08/02 07:29:20;;;;;;;5.60;5.00;;;;;;;30.16;47.46;99441.41;1783184;80;20995;-67
2023/08/02 07:31:50;;;;;;;5.65;4.87;;;;;;;30.33;45.18;99439.77;1782906;79;21494;-69
2023/08/02 07:34:19;;;;;;;12.50;7.20;;;;;;;30.17;44.83;99440.23;1782871;80;21434;-67
2023/08/02 07:36:48;;;;;;;6.05;4.58;;;;;;;30.02;44.84;99438.09;1783145;80;21058;-68
2023/08/02 07:39:17;;;;;;;5.90;4.47;;;;;;;29.97;44.36;99437.70;1783079;80;21003;-68
2023/08/02 07:41:46;;;;;;;8.25;4.90;;;;;;;30.07;44.54;99435.03;1783074;79;21086;-68
2023/08/02 07:44:17;;;;;;;4.55;4.15;;;;;;;30.23;44.02;99438.81;1783116;80;21030;-69
2023/08/02 07:46:45;;;;;;;6.20;4.37;;;;;;;30.41;43.96;99438.82;1783135;80;21003;-66
2023/08/02 07:49:14;;;;;;;5.33;4.75;;;;;;;30.58;43.22;99437.78;1782965;80;21007;-66
2023/08/02 07:51:43;;;;;;;7.22;4.22;;;;;;;30.78;43.01;99433.20;1783059;80;21089;-69
2023/08/02 07:54:13;;;;;;;6.08;4.15;;;;;;;31.02;42.69;99436.56;1782984;80;21003;-67
2023/08/02 07:56:42;;;;;;;7.58;4.45;;;;;;;31.13;41.21;99433.46;1782984;80;21015;-68
2023/08/02 07:59:11;;;;;;;7.53;4.42;;;;;;;31.01;41.40;99430.08;1782958;80;21006;-68
2023/08/02 08:01:44;;;;;;;9.08;5.00;;;;;;;30.88;41.62;99434.12;1783061;80;21090;-68
2023/08/02 08:04:14;;;;;;;4.40;3.87;;;;;;;30.71;42.17;99428.73;1782895;80;21415;-66
2023/08/02 08:06:47;;;;;;;7.80;4.70;;;;;;;30.63;42.43;99424.84;1782346;79;20999;-72
2023/08/02 08:09:15;;;;;;;5.25;4.37;;;;;;;30.64;42.89;99419.42;1780271;79;21050;-67
2023/08/02 08:11:43;;;;;;;11.38;4.30;;;;;;;30.79;42.29;99420.11;1773321;80;21028;-70
2023/08/02 08:14:13;;;;;;;5.72;4.65;;;;;;;30.88;41.98;99406.66;1769481;80;21027;-67
2023/08/02 08:16:42;;;;;;;6.45;4.53;;;;;;;31.03;41.98;99412.15;1781209;80;21003;-68
2023/08/02 08:19:11;;;;;;;6.00;4.50;;;;;;;31.13;42.03;99407.98;1765573;80;21482;-68
2023/08/02 08:21:41;;;;;;;7.50;4.70;;;;;;;31.27;41.80;99407.05;1759698;81;21067;-68
2023/08/02 08:24:11;;;;;;;5.92;5.20;;;;;;;31.36;41.89;99404.89;1759997;80;21437;-67
2023/08/02 08:26:39;;;;;;;8.53;6.47;;;;;;;31.54;41.47;99404.80;1766063;80;21560;-66
2023/08/02 08:29:08;;;;;;;7.83;4.53;;;;;;;31.75;40.55;99409.44;1781111;80;21039;-68
2023/08/02 08:31:38;;;;;;;7.60;4.83;;;;;;;31.82;40.60;99407.61;1780929;80;21134;-68
2023/08/02 08:34:08;;;;;;;4.62;4.22;;;;;;;31.92;40.16;99404.05;1779934;80;21125;-67
2023/08/02 08:36:38;;;;;;;6.10;4.67;;;;;;;31.93;40.61;99404.27;1779885;80;21090;-71
2023/08/02 08:39:07;;;;;;;8.23;4.92;;;;;;;32.01;40.93;99402.67;1780109;80;21440;-67
2023/08/02 08:41:36;;;;;;;6.42;4.42;;;;;;;32.05;41.08;99399.94;1779994;80;21051;-65
2023/08/02 08:44:05;;;;;;;5.08;4.50;;;;;;;32.15;40.73;99392.30;1770733;80;21080;-70
2023/08/02 08:46:34;;;;;;;9.98;5.35;;;;;;;32.14;40.75;99397.14;1758653;80;21075;-66
2023/08/02 08:49:04;;;;;;;7.97;4.92;;;;;;;32.06;41.12;99393.08;1758762;81;21511;-68
2023/08/02 08:51:39;;;;;;;7.78;5.28;;;;;;;32.13;41.29;99391.84;1758846;80;20988;-67
2023/08/02 08:54:14;;;;;;;13.85;8.13;;;;;;;32.24;40.61;99394.38;1758914;81;21084;-68
2023/08/02 08:56:42;;;;;;;6.20;5.60;;;;;;;32.14;41.53;99390.65;1758931;81;21056;-67
2023/08/02 08:59:11;;;;;;;7.30;4.87;;;;;;;31.91;41.49;99386.81;1758611;81;20993;-68
2023/08/02 09:01:48;;;;;;;6.03;5.00;;;;;;;31.64;41.86;99392.71;1758611;81;21068;-68
2023/08/02 09:04:19;;;;;;;6.28;4.80;;;;;;;31.43;42.37;99384.45;1758768;80;21064;-69
2023/08/02 09:06:47;;;;;;;6.03;4.72;;;;;;;31.28;42.90;99379.57;1758555;80;21064;-69
2023/08/02 09:09:16;;;;;;;16.02;6.17;;;;;;;31.16;43.67;99374.76;1758837;81;21040;-68
2023/08/02 09:11:45;;;;;;;7.33;4.92;;;;;;;31.10;43.97;99367.67;1758713;81;21001;-67
2023/08/02 09:14:15;;;;;;;7.25;4.97;;;;;;;31.05;43.75;99367.34;1758666;81;22024;-69
2023/08/02 09:17:02;;;;;;;6.65;4.40;;;;;;;31.04;43.90;99374.18;1758777;81;21048;-67
2023/08/02 09:19:32;;;;;;;11.30;4.85;;;;;;;30.91;43.41;99373.99;1779486;80;21066;-69
2023/08/02 09:22:16;;;;;;;5.37;4.12;;;;;;;30.69;44.02;99371.70;1780234;80;21047;-69
2023/08/02 09:24:45;;;;;;;6.12;4.47;;;;;;;30.59;44.17;99370.19;1751018;82;21041;-69
2023/08/02 09:27:18;;;;;;;5.70;4.67;;;;;;;30.50;43.93;99357.53;1751107;82;21031;-66
2023/08/02 09:29:50;;;;;;;7.40;4.53;;;;;;;30.50;44.39;99360.95;1750772;82;21026;-66
2023/08/02 09:32:21;;;;;;;10.28;6.37;;;;;;;30.47;44.88;99365.31;1761979;80;21054;-65
2023/08/02 09:34:56;;;;;;;4.58;3.90;;;;;;;30.38;45.73;99356.73;1783082;80;21066;-67
2023/08/02 09:37:34;;;;;;;7.12;4.90;;;;;;;30.33;44.59;99357.80;1783366;80;21026;-65
2023/08/02 09:40:04;;;;;;;6.87;5.15;;;;;;;30.30;44.83;99351.44;1783028;80;21065;-67
2023/08/02 09:42:33;;;;;;;6.37;4.75;;;;;;;30.23;45.86;99349.80;1783424;80;21122;-66
2023/08/02 09:45:04;;;;;;;7.08;5.08;;;;;;;30.13;45.57;99355.34;1783383;80;20982;-67
2023/08/02 09:47:33;;;;;;;9.23;4.92;;;;;;;30.02;46.15;99349.09;1783228;80;21062;-67
2023/08/02 09:50:10;;;;;;;5.78;3.80;;;;;;;29.97;46.48;99344.48;1783265;80;21061;-66
2023/08/02 09:52:40;;;;;;;4.90;3.72;;;;;;;29.90;45.11;99350.68;1783254;80;21082;-67
2023/08/02 09:55:08;;;;;;;4.22;3.40;;;;;;;29.86;44.18;99346.09;1783272;80;21070;-67
2023/08/02 09:57:37;;;;;;;3.58;3.27;;;;;;;29.84;43.41;99339.38;1783070;80;21021;-67
2023/08/02 10:00:09;;;;;;;5.70;3.30;;;;;;;29.75;43.50;99341.48;1783296;80;21082;-68
2023/08/02 10:02:46;;;;;;;6.78;4.22;;;;;;;29.73;43.83;99342.43;1783103;80;21006;-67
2023/08/02 10:05:15;;;;;;;4.17;3.60;;;;;;;29.73;43.65;99343.02;1782986;80;21039;-68
2023/08/02 10:07:53;;;;;;;4.92;3.45;;;;;;;29.73;43.71;99335.95;1783096;80;21006;-66
2023/08/02 10:10:29;;;;;;;7.05;3.98;;;;;;;29.73;43.80;99326.89;1782940;80;21053;-67
2023/08/02 10:13:21;;;;;;;4.10;3.70;;;;;;;29.76;44.49;99329.61;1783264;80;21058;-67
2023/08/02 10:15:51;;;;;;;3.42;3.12;;;;;;;29.84;44.12;99330.08;1789679;78;21015;-68
2023/08/02 10:18:19;;;;;;;5.78;3.50;;;;;;;29.83;43.86;99332.08;1765802;80;21042;-67
2023/08/02 10:20:48;;;;;;;3.55;3.25;;;;;;;29.79;43.86;99323.25;1762058;81;21248;-69
2023/08/02 10:23:18;;;;;;;6.08;3.95;;;;;;;29.79;43.84;99308.55;1788388;79;21580;-68
2023/08/02 10:25:47;;;;;;;4.05;3.65;;;;;;;29.81;44.38;99310.43;1761775;81;21069;-69
2023/08/02 10:28:17;;;;;;;4.35;3.55;;;;;;;29.81;44.58;99307.61;1788527;79;21447;-70
2023/08/02 10:30:45;;;;;;;4.47;3.47;;;;;;;29.85;43.89;99302.08;1761868;81;21022;-66
2023/08/02 10:33:18;;;;;;;4.30;3.85;;;;;;;29.83;44.02;99309.48;1767083;80;21054;-66
2023/08/02 10:36:06;;;;;;;4.10;3.50;;;;;;;29.72;44.42;99301.25;1741359;82;21058;-67
2023/08/02 10:38:43;;;;;;;5.08;3.95;;;;;;;29.60;45.18;99298.41;1710326;82;21429;-67
2023/08/02 10:41:17;;;;;;;3.83;3.42;;;;;;;29.64;45.29;99297.95;1710652;84;21045;-65
2023/08/02 10:44:12;;;;;;;5.83;3.45;;;;;;;29.68;44.77;99286.77;1710780;84;21021;-68
2023/08/02 10:46:43;;;;;;;4.50;3.30;;;;;;;29.70;44.90;99281.02;1710665;83;20982;-67
2023/08/02 10:49:20;;;;;;;5.70;3.20;;;;;;;29.79;44.86;99273.25;1710579;82;21614;-66
2023/08/02 10:51:49;;;;;;;4.20;3.50;;;;;;;29.79;44.80;99269.02;1710484;84;21469;-67
2023/08/02 10:54:22;;;;;;;3.70;3.40;;;;;;;29.82;44.70;99279.59;1710591;83;21034;-65
2023/08/02 10:57:04;;;;;;;4.72;3.40;;;;;;;29.87;44.55;99264.42;1710647;84;21460;-66
2023/08/02 10:59:35;;;;;;;5.47;3.77;;;;;;;29.88;44.16;99268.30;1710479;82;21057;-67
2023/08/02 11:02:10;;;;;;;4.17;3.42;;;;;;;29.90;43.81;99265.12;1710512;82;21042;-65
2023/08/02 11:04:40;;;;;;;7.62;4.12;;;;;;;29.94;43.86;99252.80;1710280;83;21061;-66
2023/08/02 11:07:21;;;;;;;8.33;6.08;;;;;;;29.89;43.81;99253.00;1686932;84;21504;-67
2023/08/02 11:09:54;;;;;;;5.05;3.50;;;;;;;29.80;44.11;99241.00;1710499;84;21014;-70
2023/08/02 11:12:22;;;;;;;4.22;3.47;;;;;;;29.76;44.38;99243.48;1710810;84;21001;-69
2023/08/02 11:14:52;;;;;;;4.53;3.67;;;;;;;29.69;44.72;99251.72;1710881;83;21417;-69
2023/08/02 11:17:22;;;;;;;4.42;3.40;;;;;;;29.61;44.75;99250.66;1711823;83;21029;-69
2023/08/02 11:19:56;;;;;;;5.12;3.62;;;;;;;29.50;44.93;99249.48;1730774;81;21055;-68
2023/08/02 11:22:36;;;;;;;5.67;3.80;;;;;;;29.43;45.19;99243.00;1725846;83;21055;-68
2023/08/02 11:25:06;;;;;;;4.80;3.02;;;;;;;29.39;45.40;99243.44;1727408;83;21070;-67
2023/08/02 11:27:36;;;;;;;4.65;3.70;;;;;;;29.34;45.54;99236.61;1757549;81;21169;-67
2023/08/02 11:30:08;;;;;;;4.65;3.42;;;;;;;29.33;45.87;99229.32;1726058;83;21054;-66
2023/08/02 11:32:46;;;;;;;4.35;3.60;;;;;;;29.40;45.39;99240.03;1755971;81;21090;-66
2023/08/02 11:35:17;;;;;;;5.12;3.58;;;;;;;29.42;45.21;99240.50;1738280;82;21101;-68
2023/08/02 11:37:47;;;;;;;3.67;3.20;;;;;;;29.34;45.01;99230.38;1738323;82;21035;-69
2023/08/02 11:40:16;;;;;;;3.95;3.05;;;;;;;29.27;44.97;99227.31;1738233;82;21058;-66
2023/08/02 11:42:48;;;;;;;5.67;3.45;;;;;;;29.24;44.86;99225.75;1738083;82;21557;-68
2023/08/02 11:45:34;;;;;;;5.62;3.67;;;;;;;29.22;45.21;99229.52;1737915;82;21010;-66